createdAt,value
2022-12-18T00:02:00.743Z,102105.27
2022-12-18T00:04:47.594Z,102103.85
2022-12-18T00:07:33.669Z,102105.67
2022-12-18T00:10:20.147Z,102107.35
2022-12-18T00:13:09.820Z,102111.40
2022-12-18T00:15:57.028Z,102112.77
2022-12-18T00:18:44.202Z,102111.61
2022-12-18T00:21:31.109Z,102114.37
2022-12-18T00:24:17.590Z,102112.38
2022-12-18T00:27:03.931Z,102115.88
2022-12-18T00:29:50.587Z,102123.02
2022-12-18T00:32:37.061Z,102123.30
2022-12-18T00:35:23.586Z,102125.12
2022-12-18T00:38:09.733Z,102127.13
2022-12-18T00:40:55.700Z,102126.30
2022-12-18T00:43:42.269Z,102130.58
2022-12-18T00:46:28.486Z,102136.90
2022-12-18T00:49:15.947Z,102143.94
2022-12-18T00:52:02.401Z,102145.67
2022-12-18T00:54:48.675Z,102153.54
2022-12-18T00:57:35.022Z,102153.52
2022-12-18T01:00:21.918Z,102158.98
2022-12-18T01:03:08.334Z,102162.45
2022-12-18T01:05:54.568Z,102165.82
2022-12-18T01:08:41.027Z,102167.02
2022-12-18T01:11:27.705Z,102172.48
2022-12-18T01:14:14.210Z,102178.40
2022-12-18T01:17:00.721Z,102181.85
2022-12-18T01:19:47.352Z,102183.35
2022-12-18T01:22:33.678Z,102187.67
2022-12-18T01:25:20.138Z,102193.98
2022-12-18T01:28:06.760Z,102192.86
2022-12-18T01:30:52.688Z,102192.98
2022-12-18T01:33:39.423Z,102201.55
2022-12-18T01:36:28.154Z,102199.20
2022-12-18T01:39:14.766Z,102199.55
2022-12-18T01:42:03.317Z,102198.48
2022-12-18T01:44:56.404Z,102196.61
2022-12-18T01:47:59.155Z,102199.29
2022-12-18T01:50:45.636Z,102196.77
2022-12-18T01:53:32.191Z,102199.28
2022-12-18T01:56:19.860Z,102206.05
2022-12-18T01:59:07.142Z,102207.34
2022-12-18T02:01:53.914Z,102211.54
2022-12-18T02:04:49.166Z,102211.29
2022-12-18T02:07:44.486Z,102212.20
2022-12-18T02:10:35.714Z,102212.27
2022-12-18T02:13:29.566Z,102218.12
2022-12-18T02:16:49.335Z,102216.98
2022-12-18T02:19:42.090Z,102220.15
2022-12-18T02:22:40.783Z,102218.96
2022-12-18T02:26:04.572Z,102218.18
2022-12-18T02:28:57.518Z,102230.59
2022-12-18T02:31:46.547Z,102227.70
2022-12-18T02:34:34.012Z,102227.14
2022-12-18T02:37:20.640Z,102233.73
2022-12-18T02:40:07.510Z,102237.95
2022-12-18T02:42:53.984Z,102236.41
2022-12-18T02:45:57.087Z,102243.20
2022-12-18T02:48:43.204Z,102248.63
2022-12-18T02:51:38.827Z,102243.70
2022-12-18T02:55:06.347Z,102240.77
2022-12-18T02:57:58.055Z,102240.64
2022-12-18T03:00:50.046Z,102235.52
2022-12-18T03:03:39.991Z,102232.67
2022-12-18T03:06:29.223Z,102232.79
2022-12-18T03:09:19.003Z,102239.47
2022-12-18T03:12:25.235Z,102242.23
2022-12-18T03:15:20.594Z,102244.93
2022-12-18T03:18:28.627Z,102245.28
2022-12-18T03:21:15.320Z,102247.60
2022-12-18T03:24:01.516Z,102252.23
2022-12-18T03:26:49.031Z,102252.08
2022-12-18T03:29:38.839Z,102246.59
2022-12-18T03:32:28.226Z,102244.48
2022-12-18T03:35:19.781Z,102248.21
2022-12-18T03:38:06.491Z,102252.17
2022-12-18T03:41:00.913Z,102254.39
2022-12-18T03:43:53.212Z,102255.79
2022-12-18T03:46:52.587Z,102260.30
2022-12-18T03:49:44.915Z,102265.75
2022-12-18T03:52:34.251Z,102267.80
2022-12-18T03:55:20.954Z,102271.10
2022-12-18T03:58:07.228Z,102271.07
2022-12-18T04:00:54.259Z,102278.37
2022-12-18T04:03:41.261Z,102281.52
2022-12-18T04:06:27.988Z,102287.45
2022-12-18T04:09:14.728Z,102288.17
2022-12-18T04:12:00.744Z,102292.09
2022-12-18T04:14:47.120Z,102290.98
2022-12-18T04:17:33.144Z,102295.73
2022-12-18T04:20:19.533Z,102302.26
2022-12-18T04:23:06.187Z,102304.21
2022-12-18T04:25:52.447Z,102305.41
2022-12-18T04:28:39.027Z,102307.94
2022-12-18T04:31:25.468Z,102310.81
2022-12-18T04:34:11.722Z,102309.75
2022-12-18T04:36:58.135Z,102309.53
2022-12-18T04:39:45.538Z,102305.73
2022-12-18T04:42:31.736Z,102310.27
2022-12-18T04:45:18.435Z,102317.76
2022-12-18T04:48:04.803Z,102317.79
2022-12-18T04:50:50.898Z,102324.81
2022-12-18T04:53:37.563Z,102329.68
2022-12-18T04:56:24.000Z,102328.02
2022-12-18T04:59:10.676Z,102332.96
2022-12-18T05:01:57.157Z,102340.79
2022-12-18T05:04:43.325Z,102340.70
2022-12-18T05:07:29.633Z,102337.50
2022-12-18T05:10:16.016Z,102345.34
2022-12-18T05:13:02.674Z,102348.14
2022-12-18T05:15:52.812Z,102349.45
2022-12-18T05:18:39.160Z,102346.99
2022-12-18T05:21:25.805Z,102349.63
2022-12-18T05:24:12.602Z,102353.48
2022-12-18T05:26:59.224Z,102357.81
2022-12-18T05:29:45.853Z,102356.92
2022-12-18T05:32:32.493Z,102357.07
2022-12-18T05:35:19.037Z,102362.38
2022-12-18T05:38:05.232Z,102368.61
2022-12-18T05:40:52.077Z,102379.58
2022-12-18T05:43:41.389Z,102381.80
2022-12-18T05:46:27.866Z,102383.36
2022-12-18T05:49:14.219Z,102384.21
2022-12-18T05:52:00.583Z,102391.99
2022-12-18T05:54:47.091Z,102392.13
2022-12-18T05:57:33.528Z,102396.42
2022-12-18T06:00:20.156Z,102396.13
2022-12-18T06:03:07.243Z,102391.80
2022-12-18T06:05:53.363Z,102396.27
2022-12-18T06:08:45.835Z,102402.69
2022-12-18T06:11:33.045Z,102403.67
2022-12-18T06:14:19.327Z,102403.06
2022-12-18T06:17:05.967Z,102406.33
2022-12-18T06:19:52.075Z,102406.56
2022-12-18T06:22:38.542Z,102411.17
2022-12-18T06:25:25.135Z,102414.36
2022-12-18T06:28:11.655Z,102417.36
2022-12-18T06:30:58.331Z,102425.14
2022-12-18T06:33:44.820Z,102423.60
2022-12-18T06:36:31.250Z,102433.79
2022-12-18T06:39:18.032Z,102442.84
2022-12-18T06:42:04.453Z,102444.59
2022-12-18T06:44:51.234Z,102449.88
2022-12-18T06:47:38.062Z,102451.90
2022-12-18T06:50:24.614Z,102446.59
2022-12-18T06:53:11.188Z,102452.50
2022-12-18T06:56:09.408Z,102458.02
2022-12-18T06:58:56.690Z,102459.73
2022-12-18T07:01:43.130Z,102460.67
2022-12-18T07:04:30.736Z,102460.64
2022-12-18T07:07:16.980Z,102462.95
2022-12-18T07:10:04.067Z,102467.77
2022-12-18T07:12:50.200Z,102470.60
2022-12-18T07:15:36.563Z,102471.21
2022-12-18T07:18:23.112Z,102472.64
2022-12-18T07:21:14.830Z,102477.63
2022-12-18T07:24:01.371Z,102480.73
2022-12-18T07:26:47.812Z,102479.98
2022-12-18T07:29:34.283Z,102481.61
2022-12-18T07:32:20.779Z,102488.45
2022-12-18T07:35:07.349Z,102496.02
2022-12-18T07:37:53.774Z,102498.90
2022-12-18T07:40:40.071Z,102499.45
2022-12-18T07:43:26.443Z,102503.09
2022-12-18T07:46:14.905Z,102503.56
2022-12-18T07:49:01.464Z,102502.05
2022-12-18T07:51:50.147Z,102504.09
2022-12-18T07:54:36.632Z,102510.31
2022-12-18T07:57:48.769Z,102517.73
2022-12-18T08:00:29.193Z,102512.42
2022-12-18T08:03:16.094Z,102517.23
2022-12-18T08:06:03.397Z,102522.82
2022-12-18T08:08:49.486Z,102531.51
2022-12-18T08:11:36.320Z,102528.41
2022-12-18T08:14:22.916Z,102532.40
2022-12-18T08:17:08.965Z,102534.41
2022-12-18T08:19:55.353Z,102534.72
2022-12-18T08:22:43.172Z,102536.60
2022-12-18T08:25:29.397Z,102541.61
2022-12-18T08:28:18.596Z,102553.19
2022-12-18T08:31:05.443Z,102556.30
2022-12-18T08:33:52.406Z,102558.46
2022-12-18T08:36:38.766Z,102553.08
2022-12-18T08:39:24.882Z,102552.23
2022-12-18T08:42:29.719Z,102555.98
2022-12-18T08:45:17.695Z,102561.04
2022-12-18T08:48:04.240Z,102564.73
2022-12-18T08:50:56.928Z,102569.86
2022-12-18T08:53:43.612Z,102575.61
2022-12-18T08:56:30.994Z,102575.80
2022-12-18T08:59:20.041Z,102575.48
2022-12-18T09:02:06.588Z,102568.59
2022-12-18T09:04:57.385Z,102564.23
2022-12-18T09:07:44.258Z,102559.19
2022-12-18T09:10:31.129Z,102548.99
2022-12-18T09:13:17.994Z,102540.80
2022-12-18T09:16:04.933Z,102529.50
2022-12-18T09:18:50.948Z,102529.09
2022-12-18T09:21:44.798Z,102522.90
2022-12-18T09:24:34.370Z,102527.53
2022-12-18T09:27:20.497Z,102521.94
2022-12-18T09:30:27.645Z,102519.48
2022-12-18T09:33:14.758Z,102522.74
2022-12-18T09:36:02.388Z,102515.39
2022-12-18T09:38:49.088Z,102510.95
2022-12-18T09:41:55.777Z,102509.13
2022-12-18T09:44:47.429Z,102507.98
2022-12-18T09:47:37.597Z,102502.57
2022-12-18T09:50:30.616Z,102503.25
2022-12-18T09:53:20.539Z,102505.91
2022-12-18T09:56:07.144Z,102509.34
2022-12-18T09:59:01.126Z,102508.80
2022-12-18T10:01:47.738Z,102504.63
2022-12-18T10:04:34.073Z,102510.80
2022-12-18T10:07:26.113Z,102510.85
2022-12-18T10:10:39.808Z,102510.19
2022-12-18T10:13:40.546Z,102509.83
2022-12-18T10:16:36.244Z,102516.98
2022-12-18T10:19:25.645Z,102526.69
2022-12-18T10:22:15.318Z,102529.64
2022-12-18T10:25:16.771Z,102529.78
2022-12-18T10:28:12.607Z,102523.80
2022-12-18T10:30:59.244Z,102523.45
2022-12-18T10:33:45.670Z,102525.31
2022-12-18T10:36:32.108Z,102525.41
2022-12-18T10:39:27.226Z,102525.09
2022-12-18T10:42:19.946Z,102523.14
2022-12-18T10:45:12.549Z,102517.13
2022-12-18T10:47:59.545Z,102514.02
2022-12-18T10:51:10.455Z,102517.02
2022-12-18T10:53:59.024Z,102516.47
2022-12-18T10:56:45.583Z,102514.41
2022-12-18T10:59:32.727Z,102517.88
2022-12-18T11:02:36.124Z,102522.19
2022-12-18T11:05:34.439Z,102531.57
2022-12-18T11:08:41.963Z,102534.54
2022-12-18T11:11:28.793Z,102536.44
2022-12-18T11:14:19.216Z,102546.91
2022-12-18T11:20:30.831Z,102559.23
2022-12-18T11:23:16.774Z,102560.08
2022-12-18T11:26:05.037Z,102562.98
2022-12-18T11:28:53.607Z,102561.39
2022-12-18T11:31:39.616Z,102562.20
2022-12-18T11:34:30.269Z,102551.85
2022-12-18T11:37:16.738Z,102540.83
2022-12-18T11:40:18.981Z,102529.58
2022-12-18T11:43:14.704Z,102530.45
2022-12-18T11:46:29.069Z,102528.11
2022-12-18T11:49:17.118Z,102525.77
2022-12-18T11:52:11.404Z,102524.52
2022-12-18T11:55:00.858Z,102513.38
2022-12-18T11:57:59.711Z,102515.19
2022-12-18T12:01:11.655Z,102518.55
2022-12-18T12:04:17.078Z,102518.00
2022-12-18T12:07:24.560Z,102511.99
2022-12-18T12:10:18.284Z,102509.15
2022-12-18T12:13:25.408Z,102512.08
2022-12-18T12:16:30.341Z,102513.58
2022-12-18T12:19:22.536Z,102517.11
2022-12-18T12:22:21.886Z,102517.14
2022-12-18T12:25:40.638Z,102517.77
2022-12-18T12:28:45.602Z,102517.05
2022-12-18T12:32:02.294Z,102514.76
2022-12-18T12:35:33.147Z,102507.65
2022-12-18T12:38:26.572Z,102509.33
2022-12-18T12:41:34.735Z,102507.39
2022-12-18T12:44:24.845Z,102504.29
2022-12-18T12:47:16.323Z,102502.72
2022-12-18T12:50:05.901Z,102502.59
2022-12-18T12:52:55.666Z,102503.27
2022-12-18T12:55:42.243Z,102505.23
2022-12-18T12:58:59.560Z,102511.82
2022-12-18T13:01:51.018Z,102512.17
2022-12-18T13:04:43.079Z,102512.23
2022-12-18T13:07:42.210Z,102514.57
2022-12-18T13:10:31.422Z,102508.30
2022-12-18T13:13:24.259Z,102509.74
2022-12-18T13:16:11.663Z,102507.67
2022-12-18T13:18:59.692Z,102507.43
2022-12-18T13:21:46.620Z,102504.89
2022-12-18T13:24:33.969Z,102501.55
2022-12-18T13:27:45.036Z,102495.45
2022-12-18T13:30:34.445Z,102496.20
2022-12-18T13:33:30.423Z,102500.97
2022-12-18T13:36:23.298Z,102509.82
2022-12-18T13:39:34.758Z,102516.98
2022-12-18T13:42:43.623Z,102526.61
2022-12-18T13:45:42.048Z,102532.48
2022-12-18T13:48:30.018Z,102539.42
2022-12-18T13:51:18.880Z,102541.08
2022-12-18T13:54:21.147Z,102540.30
2022-12-18T13:57:31.694Z,102531.15
2022-12-18T14:00:26.784Z,102533.74
2022-12-18T14:03:22.611Z,102536.19
2022-12-18T14:06:09.439Z,102536.35
2022-12-18T14:08:56.039Z,102550.64
2022-12-18T14:11:53.774Z,102557.38
2022-12-18T14:14:42.895Z,102562.36
2022-12-18T14:17:29.381Z,102569.15
2022-12-18T14:20:16.749Z,102569.28
2022-12-18T14:23:03.273Z,102570.35
2022-12-18T14:25:49.839Z,102577.05
2022-12-18T14:28:44.524Z,102581.11
2022-12-18T14:31:31.407Z,102587.76
2022-12-18T14:34:17.987Z,102590.64
2022-12-18T14:37:04.278Z,102592.85
2022-12-18T14:39:59.109Z,102581.91
2022-12-18T14:42:46.239Z,102578.53
2022-12-18T14:45:43.836Z,102582.59
2022-12-18T14:48:42.008Z,102580.94
2022-12-18T14:51:29.962Z,102579.21
2022-12-18T14:54:18.208Z,102580.95
2022-12-18T14:57:19.718Z,102585.91
2022-12-18T15:00:07.889Z,102589.79
2022-12-18T15:02:56.224Z,102586.76
2022-12-18T15:05:42.343Z,102579.70
2022-12-18T15:08:36.719Z,102579.57
2022-12-18T15:11:33.157Z,102572.25
2022-12-18T15:14:30.053Z,102564.73
2022-12-18T15:17:23.499Z,102566.31
2022-12-18T15:20:11.187Z,102570.41
2022-12-18T15:22:57.828Z,102573.67
2022-12-18T15:25:44.232Z,102576.23
2022-12-18T15:28:46.969Z,102585.23
2022-12-18T15:31:36.309Z,102587.88
2022-12-18T15:34:23.353Z,102587.55
2022-12-18T15:37:09.512Z,102582.77
2022-12-18T15:39:56.164Z,102573.95
2022-12-18T15:43:01.477Z,102559.75
2022-12-18T15:45:48.115Z,102558.87
2022-12-18T15:48:41.210Z,102553.98
2022-12-18T15:51:29.598Z,102551.04
2022-12-18T15:54:17.167Z,102543.91
2022-12-18T15:57:21.998Z,102541.20
2022-12-18T16:00:12.773Z,102544.81
2022-12-18T16:02:59.216Z,102539.23
2022-12-18T16:05:45.787Z,102537.30
2022-12-18T16:08:32.445Z,102537.17
2022-12-18T16:11:38.910Z,102541.09
2022-12-18T16:14:29.294Z,102535.65
2022-12-18T16:17:15.589Z,102533.19
2022-12-18T16:20:02.248Z,102533.04
2022-12-18T16:22:49.155Z,102533.78
2022-12-18T16:25:35.661Z,102530.39
2022-12-18T16:28:22.019Z,102523.77
2022-12-18T16:31:08.701Z,102520.58
2022-12-18T16:34:19.432Z,102525.15
2022-12-18T16:37:08.554Z,102524.04
2022-12-18T16:39:54.870Z,102515.28
2022-12-18T16:42:42.070Z,102514.15
2022-12-18T16:45:34.124Z,102511.45
2022-12-18T16:48:20.782Z,102511.77
2022-12-18T16:51:07.374Z,102512.23
2022-12-18T16:53:55.066Z,102518.33
2022-12-18T16:56:42.880Z,102516.26
2022-12-18T16:59:29.447Z,102515.63
2022-12-18T17:02:24.282Z,102512.39
2022-12-18T17:05:11.163Z,102527.05
2022-12-18T17:07:57.791Z,102530.74
2022-12-18T17:10:44.370Z,102538.73
2022-12-18T17:13:30.606Z,102541.52
2022-12-18T17:16:17.685Z,102539.62
2022-12-18T17:19:03.955Z,102541.47
2022-12-18T17:21:50.358Z,102540.33
2022-12-18T17:24:36.836Z,102538.35
2022-12-18T17:27:23.616Z,102543.39
2022-12-18T17:30:10.734Z,102540.63
2022-12-18T17:32:57.404Z,102545.23
2022-12-18T17:35:44.069Z,102549.55
2022-12-18T17:38:30.869Z,102545.38
2022-12-18T17:41:17.617Z,102543.73
2022-12-18T17:44:05.549Z,102548.15
2022-12-18T17:47:13.040Z,102546.54
2022-12-18T17:49:59.803Z,102552.75
2022-12-18T17:52:46.335Z,102541.96
2022-12-18T17:55:32.852Z,102540.54
2022-12-18T17:58:19.142Z,102542.68
2022-12-18T18:01:06.774Z,102548.83
2022-12-18T18:03:55.850Z,102549.14
2022-12-18T18:06:42.496Z,102554.29
2022-12-18T18:09:28.882Z,102558.16
2022-12-18T18:12:33.501Z,102555.88
2022-12-18T18:15:19.779Z,102550.48
2022-12-18T18:18:06.287Z,102544.63
2022-12-18T18:20:52.619Z,102541.70
2022-12-18T18:23:40.964Z,102531.70
2022-12-18T18:26:31.212Z,102530.21
2022-12-18T18:29:20.060Z,102530.53
2022-12-18T18:32:06.222Z,102526.48
2022-12-18T18:34:52.766Z,102521.21
2022-12-18T18:37:39.230Z,102520.25
2022-12-18T18:40:28.138Z,102518.80
2022-12-18T18:43:14.983Z,102519.73
2022-12-18T18:46:01.975Z,102520.04
2022-12-18T18:48:48.243Z,102525.55
2022-12-18T18:51:35.493Z,102528.27
2022-12-18T18:54:22.309Z,102530.84
2022-12-18T18:57:20.358Z,102533.80
2022-12-18T19:00:08.476Z,102528.59
2022-12-18T19:03:00.400Z,102528.22
2022-12-18T19:05:51.784Z,102523.05
2022-12-18T19:08:39.177Z,102515.34
2022-12-18T19:11:45.493Z,102523.91
2022-12-18T19:14:31.932Z,102524.08
2022-12-18T19:17:18.344Z,102527.77
2022-12-18T19:20:05.600Z,102533.48
2022-12-18T19:22:55.681Z,102531.98
2022-12-18T19:25:42.735Z,102532.79
2022-12-18T19:28:29.188Z,102526.44
2022-12-18T19:31:19.982Z,102520.95
2022-12-18T19:34:09.617Z,102514.35
2022-12-18T19:36:59.706Z,102511.05
2022-12-18T19:39:46.470Z,102509.08
2022-12-18T19:42:35.534Z,102506.94
2022-12-18T19:45:22.095Z,102500.46
2022-12-18T19:48:09.872Z,102498.64
2022-12-18T19:50:56.128Z,102501.14
2022-12-18T19:53:42.832Z,102500.45
2022-12-18T19:56:31.546Z,102501.21
2022-12-18T19:59:18.261Z,102498.67
2022-12-18T20:02:05.112Z,102495.89
2022-12-18T20:04:51.788Z,102491.98
2022-12-18T20:07:38.273Z,102490.80
2022-12-18T20:10:26.322Z,102490.46
2022-12-18T20:13:12.821Z,102492.04
2022-12-18T20:16:02.005Z,102498.25
2022-12-18T20:18:49.144Z,102492.24
2022-12-18T20:21:35.581Z,102492.95
2022-12-18T20:24:21.959Z,102501.85
2022-12-18T20:27:14.040Z,102500.77
2022-12-18T20:30:01.894Z,102494.08
2022-12-18T20:32:48.159Z,102499.07
2022-12-18T20:35:34.413Z,102501.04
2022-12-18T20:38:21.308Z,102492.46
2022-12-18T20:41:10.819Z,102491.30
2022-12-18T20:43:57.300Z,102494.70
2022-12-18T20:46:43.831Z,102493.41
2022-12-18T20:49:30.179Z,102486.67
2022-12-18T20:52:16.683Z,102491.77
2022-12-18T20:55:05.516Z,102488.45
2022-12-18T20:57:52.832Z,102482.96
2022-12-18T21:00:39.549Z,102483.56
2022-12-18T21:03:25.945Z,102495.67
2022-12-18T21:06:13.045Z,102492.99
2022-12-18T21:08:59.638Z,102493.73
2022-12-18T21:12:06.375Z,102489.65
2022-12-18T21:14:52.634Z,102492.73
2022-12-18T21:17:44.064Z,102490.98
2022-12-18T21:20:31.604Z,102484.51
2022-12-18T21:23:17.844Z,102482.70
2022-12-18T21:26:25.105Z,102479.62
2022-12-18T21:29:12.988Z,102473.15
2022-12-18T21:31:59.407Z,102473.34
2022-12-18T21:34:48.242Z,102470.06
2022-12-18T21:37:34.776Z,102458.27
2022-12-18T21:40:21.023Z,102454.73
2022-12-18T21:43:28.037Z,102456.09
2022-12-18T21:46:14.802Z,102456.15
2022-12-18T21:49:02.118Z,102452.23
2022-12-18T21:51:50.028Z,102439.21
2022-12-18T21:54:36.815Z,102425.99
2022-12-18T21:57:23.070Z,102422.00
2022-12-18T22:00:17.423Z,102414.56
2022-12-18T22:03:17.443Z,102413.39
2022-12-18T22:06:09.384Z,102420.56
2022-12-18T22:08:56.263Z,102419.88
2022-12-18T22:11:42.435Z,102422.41
2022-12-18T22:14:29.178Z,102424.50
2022-12-18T22:17:15.763Z,102411.45
2022-12-18T22:20:02.032Z,102409.09
2022-12-18T22:22:48.764Z,102402.39
2022-12-18T22:25:35.829Z,102397.98
2022-12-18T22:28:44.712Z,102400.39
2022-12-18T22:31:31.001Z,102400.98
2022-12-18T22:34:22.632Z,102397.33
2022-12-18T22:37:13.161Z,102395.67
2022-12-18T22:39:59.395Z,102384.42
2022-12-18T22:42:49.149Z,102382.77
2022-12-18T22:45:38.507Z,102373.52
2022-12-18T22:48:25.391Z,102371.53
2022-12-18T22:51:15.686Z,102370.42
2022-12-18T22:54:02.361Z,102371.72
2022-12-18T22:56:49.127Z,102367.79
2022-12-18T22:59:35.649Z,102363.38
2022-12-18T23:02:22.345Z,102361.30
2022-12-18T23:05:08.879Z,102364.11
2022-12-18T23:07:54.941Z,102365.85
2022-12-18T23:10:41.322Z,102356.98
2022-12-18T23:13:28.183Z,102348.55
2022-12-18T23:16:15.755Z,102353.72
2022-12-18T23:19:03.170Z,102348.45
2022-12-18T23:21:49.589Z,102340.73
2022-12-18T23:24:35.609Z,102340.23
2022-12-18T23:27:21.906Z,102338.66
2022-12-18T23:30:08.673Z,102333.94
2022-12-18T23:32:54.893Z,102336.05
2022-12-18T23:35:41.191Z,102338.41
2022-12-18T23:38:27.543Z,102333.59
2022-12-18T23:41:14.639Z,102330.55
2022-12-18T23:44:01.035Z,102328.66
2022-12-18T23:46:47.345Z,102329.77
2022-12-18T23:49:33.628Z,102326.08
2022-12-18T23:52:19.945Z,102327.79
2022-12-18T23:55:06.711Z,102324.93
2022-12-18T23:57:53.131Z,102318.92
